sensor_id;sensor_type;location;lat;lon;timestamp;P1;durP1;ratioP1;P2;durP2;ratioP2
21032;SDS011;10675;47.976;7.824;2023-11-21T00:02:17;3.77;;;1.33;;
21032;SDS011;10675;47.976;7.824;2023-11-21T00:04:43;3.33;;;1.03;;
21032;SDS011;10675;47.976;7.824;2023-11-21T00:07:08;2.10;;;1.03;;
21032;SDS011;10675;47.976;7.824;2023-11-21T00:09:34;4.63;;;0.70;;
21032;SDS011;10675;47.976;7.824;2023-11-21T00:12:01;4.70;;;1.20;;
21032;SDS011;10675;47.976;7.824;2023-11-21T00:14:27;3.63;;;1.10;;
21032;SDS011;10675;47.976;7.824;2023-11-21T00:16:52;2.77;;;1.23;;
21032;SDS011;10675;47.976;7.824;2023-11-21T00:19:18;6.30;;;1.27;;
21032;SDS011;10675;47.976;7.824;2023-11-21T00:21:44;5.97;;;0.87;;
21032;SDS011;10675;47.976;7.824;2023-11-21T00:24:10;6.53;;;1.30;;
21032;SDS011;10675;47.976;7.824;2023-11-21T00:26:38;1.60;;;1.20;;
21032;SDS011;10675;47.976;7.824;2023-11-21T00:29:04;4.90;;;1.17;;
21032;SDS011;10675;47.976;7.824;2023-11-21T00:31:33;2.43;;;1.03;;
21032;SDS011;10675;47.976;7.824;2023-11-21T00:34:02;4.40;;;0.83;;
21032;SDS011;10675;47.976;7.824;2023-11-21T00:36:28;2.10;;;1.10;;
21032;SDS011;10675;47.976;7.824;2023-11-21T00:38:54;2.63;;;0.90;;
21032;SDS011;10675;47.976;7.824;2023-11-21T00:41:21;3.50;;;0.87;;
21032;SDS011;10675;47.976;7.824;2023-11-21T00:43:46;1.63;;;1.10;;
21032;SDS011;10675;47.976;7.824;2023-11-21T00:46:12;2.30;;;1.10;;
21032;SDS011;10675;47.976;7.824;2023-11-21T00:48:38;2.53;;;1.03;;
21032;SDS011;10675;47.976;7.824;2023-11-21T00:51:04;2.63;;;1.03;;
21032;SDS011;10675;47.976;7.824;2023-11-21T00:53:31;4.10;;;0.93;;
21032;SDS011;10675;47.976;7.824;2023-11-21T00:55:56;4.27;;;1.30;;
21032;SDS011;10675;47.976;7.824;2023-11-21T00:58:25;3.80;;;0.87;;
21032;SDS011;10675;47.976;7.824;2023-11-21T01:00:51;1.80;;;0.60;;
21032;SDS011;10675;47.976;7.824;2023-11-21T01:03:16;2.33;;;0.93;;
21032;SDS011;10675;47.976;7.824;2023-11-21T01:05:42;2.30;;;0.63;;
21032;SDS011;10675;47.976;7.824;2023-11-21T01:08:07;1.33;;;0.70;;
21032;SDS011;10675;47.976;7.824;2023-11-21T01:10:33;0.30;;;0.30;;
21032;SDS011;10675;47.976;7.824;2023-11-21T01:13:01;3.37;;;0.90;;
21032;SDS011;10675;47.976;7.824;2023-11-21T01:15:30;1.20;;;0.73;;
21032;SDS011;10675;47.976;7.824;2023-11-21T01:17:56;1.30;;;0.60;;
21032;SDS011;10675;47.976;7.824;2023-11-21T01:20:22;0.60;;;0.57;;
21032;SDS011;10675;47.976;7.824;2023-11-21T01:22:47;0.60;;;0.53;;
21032;SDS011;10675;47.976;7.824;2023-11-21T01:25:14;1.50;;;0.67;;
21032;SDS011;10675;47.976;7.824;2023-11-21T01:27:41;1.90;;;0.67;;
21032;SDS011;10675;47.976;7.824;2023-11-21T01:30:07;1.50;;;0.60;;
21032;SDS011;10675;47.976;7.824;2023-11-21T01:32:35;1.50;;;0.57;;
21032;SDS011;10675;47.976;7.824;2023-11-21T01:35:01;0.70;;;0.60;;
21032;SDS011;10675;47.976;7.824;2023-11-21T01:37:27;1.10;;;0.50;;
21032;SDS011;10675;47.976;7.824;2023-11-21T01:39:55;3.00;;;0.90;;
21032;SDS011;10675;47.976;7.824;2023-11-21T01:42:21;3.77;;;0.60;;
21032;SDS011;10675;47.976;7.824;2023-11-21T01:44:47;1.20;;;0.57;;
21032;SDS011;10675;47.976;7.824;2023-11-21T01:47:13;0.97;;;0.77;;
21032;SDS011;10675;47.976;7.824;2023-11-21T01:49:40;3.10;;;0.70;;
21032;SDS011;10675;47.976;7.824;2023-11-21T01:52:11;3.70;;;0.77;;
21032;SDS011;10675;47.976;7.824;2023-11-21T01:54:37;1.17;;;0.57;;
21032;SDS011;10675;47.976;7.824;2023-11-21T01:57:03;1.10;;;0.53;;
21032;SDS011;10675;47.976;7.824;2023-11-21T01:59:37;0.83;;;0.70;;
21032;SDS011;10675;47.976;7.824;2023-11-21T02:02:07;3.03;;;0.60;;
21032;SDS011;10675;47.976;7.824;2023-11-21T02:04:33;1.47;;;0.70;;
21032;SDS011;10675;47.976;7.824;2023-11-21T02:06:59;0.67;;;0.43;;
21032;SDS011;10675;47.976;7.824;2023-11-21T02:09:25;1.87;;;0.53;;
21032;SDS011;10675;47.976;7.824;2023-11-21T02:11:52;0.53;;;0.50;;
21032;SDS011;10675;47.976;7.824;2023-11-21T02:14:19;2.23;;;0.57;;
21032;SDS011;10675;47.976;7.824;2023-11-21T02:16:47;1.07;;;0.80;;
21032;SDS011;10675;47.976;7.824;2023-11-21T02:19:19;1.97;;;0.60;;
21032;SDS011;10675;47.976;7.824;2023-11-21T02:21:47;0.60;;;0.60;;
21032;SDS011;10675;47.976;7.824;2023-11-21T02:24:16;0.90;;;0.30;;
21032;SDS011;10675;47.976;7.824;2023-11-21T02:26:45;1.37;;;0.60;;
21032;SDS011;10675;47.976;7.824;2023-11-21T02:29:11;1.40;;;0.60;;
21032;SDS011;10675;47.976;7.824;2023-11-21T02:31:38;1.80;;;0.70;;
21032;SDS011;10675;47.976;7.824;2023-11-21T02:34:12;1.47;;;0.70;;
21032;SDS011;10675;47.976;7.824;2023-11-21T02:36:42;0.93;;;0.40;;
21032;SDS011;10675;47.976;7.824;2023-11-21T02:39:09;0.63;;;0.60;;
21032;SDS011;10675;47.976;7.824;2023-11-21T02:41:35;0.63;;;0.60;;
21032;SDS011;10675;47.976;7.824;2023-11-21T02:44:02;2.87;;;0.93;;
21032;SDS011;10675;47.976;7.824;2023-11-21T02:46:27;0.47;;;0.47;;
21032;SDS011;10675;47.976;7.824;2023-11-21T02:48:53;0.77;;;0.40;;
21032;SDS011;10675;47.976;7.824;2023-11-21T02:51:19;0.60;;;0.40;;
21032;SDS011;10675;47.976;7.824;2023-11-21T02:53:45;1.07;;;0.70;;
21032;SDS011;10675;47.976;7.824;2023-11-21T02:56:11;0.77;;;0.60;;
21032;SDS011;10675;47.976;7.824;2023-11-21T02:58:37;1.70;;;0.80;;
21032;SDS011;10675;47.976;7.824;2023-11-21T03:01:05;1.10;;;0.60;;
21032;SDS011;10675;47.976;7.824;2023-11-21T03:03:33;0.70;;;0.60;;
21032;SDS011;10675;47.976;7.824;2023-11-21T03:05:58;1.50;;;0.47;;
21032;SDS011;10675;47.976;7.824;2023-11-21T03:08:24;1.70;;;0.60;;
21032;SDS011;10675;47.976;7.824;2023-11-21T03:10:49;0.57;;;0.57;;
21032;SDS011;10675;47.976;7.824;2023-11-21T03:13:15;1.20;;;0.40;;
21032;SDS011;10675;47.976;7.824;2023-11-21T03:15:40;0.33;;;0.33;;
21032;SDS011;10675;47.976;7.824;2023-11-21T03:18:07;0.70;;;0.50;;
21032;SDS011;10675;47.976;7.824;2023-11-21T03:20:33;0.80;;;0.47;;
21032;SDS011;10675;47.976;7.824;2023-11-21T03:22:59;4.07;;;0.80;;
21032;SDS011;10675;47.976;7.824;2023-11-21T03:25:25;2.03;;;0.40;;
21032;SDS011;10675;47.976;7.824;2023-11-21T03:27:50;0.50;;;0.50;;
21032;SDS011;10675;47.976;7.824;2023-11-21T03:30:16;0.70;;;0.40;;
21032;SDS011;10675;47.976;7.824;2023-11-21T03:32:42;1.27;;;0.60;;
21032;SDS011;10675;47.976;7.824;2023-11-21T03:35:07;0.50;;;0.40;;
21032;SDS011;10675;47.976;7.824;2023-11-21T03:37:33;2.37;;;0.70;;
21032;SDS011;10675;47.976;7.824;2023-11-21T03:39:58;2.33;;;0.50;;
21032;SDS011;10675;47.976;7.824;2023-11-21T03:42:24;0.40;;;0.40;;
21032;SDS011;10675;47.976;7.824;2023-11-21T03:44:51;0.33;;;0.33;;
21032;SDS011;10675;47.976;7.824;2023-11-21T03:47:17;0.97;;;0.70;;
21032;SDS011;10675;47.976;7.824;2023-11-21T03:49:44;1.80;;;0.40;;
21032;SDS011;10675;47.976;7.824;2023-11-21T03:52:10;0.77;;;0.50;;
21032;SDS011;10675;47.976;7.824;2023-11-21T03:54:36;0.40;;;0.40;;
21032;SDS011;10675;47.976;7.824;2023-11-21T03:57:02;1.97;;;0.57;;
21032;SDS011;10675;47.976;7.824;2023-11-21T03:59:28;2.60;;;0.73;;
21032;SDS011;10675;47.976;7.824;2023-11-21T04:01:57;1.37;;;0.60;;
21032;SDS011;10675;47.976;7.824;2023-11-21T04:04:22;0.53;;;0.53;;
21032;SDS011;10675;47.976;7.824;2023-11-21T04:06:48;0.80;;;0.53;;
21032;SDS011;10675;47.976;7.824;2023-11-21T04:09:13;0.47;;;0.47;;
21032;SDS011;10675;47.976;7.824;2023-11-21T04:11:39;3.03;;;0.90;;
21032;SDS011;10675;47.976;7.824;2023-11-21T04:14:04;0.50;;;0.50;;
21032;SDS011;10675;47.976;7.824;2023-11-21T04:16:30;0.47;;;0.47;;
21032;SDS011;10675;47.976;7.824;2023-11-21T04:18:56;1.13;;;0.70;;
21032;SDS011;10675;47.976;7.824;2023-11-21T04:21:22;0.50;;;0.50;;
21032;SDS011;10675;47.976;7.824;2023-11-21T04:23:49;1.17;;;0.40;;
21032;SDS011;10675;47.976;7.824;2023-11-21T04:26:14;1.77;;;0.50;;
21032;SDS011;10675;47.976;7.824;2023-11-21T04:28:40;1.80;;;0.50;;
21032;SDS011;10675;47.976;7.824;2023-11-21T04:31:05;1.93;;;0.83;;
21032;SDS011;10675;47.976;7.824;2023-11-21T04:33:32;0.60;;;0.60;;
21032;SDS011;10675;47.976;7.824;2023-11-21T04:35:57;1.40;;;0.50;;
21032;SDS011;10675;47.976;7.824;2023-11-21T04:38:23;1.90;;;0.73;;
21032;SDS011;10675;47.976;7.824;2023-11-21T04:40:48;1.40;;;0.60;;
21032;SDS011;10675;47.976;7.824;2023-11-21T04:43:14;0.40;;;0.40;;
21032;SDS011;10675;47.976;7.824;2023-11-21T04:45:40;3.13;;;0.70;;
21032;SDS011;10675;47.976;7.824;2023-11-21T04:48:06;1.33;;;0.50;;
21032;SDS011;10675;47.976;7.824;2023-11-21T04:50:33;0.43;;;0.43;;
21032;SDS011;10675;47.976;7.824;2023-11-21T04:52:59;1.53;;;0.60;;
21032;SDS011;10675;47.976;7.824;2023-11-21T04:55:24;0.33;;;0.33;;
21032;SDS011;10675;47.976;7.824;2023-11-21T04:57:53;0.53;;;0.53;;
21032;SDS011;10675;47.976;7.824;2023-11-21T05:00:18;1.90;;;0.53;;
21032;SDS011;10675;47.976;7.824;2023-11-21T05:02:45;2.00;;;0.50;;
21032;SDS011;10675;47.976;7.824;2023-11-21T05:05:10;1.77;;;0.70;;
21032;SDS011;10675;47.976;7.824;2023-11-21T05:07:37;0.30;;;0.30;;
21032;SDS011;10675;47.976;7.824;2023-11-21T05:10:04;0.37;;;0.37;;
21032;SDS011;10675;47.976;7.824;2023-11-21T05:12:35;0.87;;;0.57;;
21032;SDS011;10675;47.976;7.824;2023-11-21T05:15:02;0.30;;;0.30;;
21032;SDS011;10675;47.976;7.824;2023-11-21T05:17:32;0.87;;;0.70;;
21032;SDS011;10675;47.976;7.824;2023-11-21T05:19:59;0.67;;;0.50;;
21032;SDS011;10675;47.976;7.824;2023-11-21T05:22:28;0.60;;;0.60;;
21032;SDS011;10675;47.976;7.824;2023-11-21T05:24:54;1.77;;;0.60;;
21032;SDS011;10675;47.976;7.824;2023-11-21T05:27:19;0.40;;;0.40;;
21032;SDS011;10675;47.976;7.824;2023-11-21T05:29:45;1.60;;;0.53;;
21032;SDS011;10675;47.976;7.824;2023-11-21T05:32:10;1.07;;;0.97;;
21032;SDS011;10675;47.976;7.824;2023-11-21T05:34:36;0.40;;;0.40;;
21032;SDS011;10675;47.976;7.824;2023-11-21T05:37:01;1.03;;;0.70;;
21032;SDS011;10675;47.976;7.824;2023-11-21T05:39:27;0.50;;;0.50;;
21032;SDS011;10675;47.976;7.824;2023-11-21T05:41:53;0.60;;;0.57;;
21032;SDS011;10675;47.976;7.824;2023-11-21T05:44:18;1.90;;;0.60;;
21032;SDS011;10675;47.976;7.824;2023-11-21T05:46:44;0.70;;;0.57;;
21032;SDS011;10675;47.976;7.824;2023-11-21T05:49:09;0.50;;;0.50;;
21032;SDS011;10675;47.976;7.824;2023-11-21T05:51:36;0.87;;;0.87;;
21032;SDS011;10675;47.976;7.824;2023-11-21T05:54:02;0.80;;;0.80;;
21032;SDS011;10675;47.976;7.824;2023-11-21T05:56:28;0.90;;;0.90;;
21032;SDS011;10675;47.976;7.824;2023-11-21T05:58:54;0.80;;;0.80;;
21032;SDS011;10675;47.976;7.824;2023-11-21T06:01:19;1.93;;;0.87;;
21032;SDS011;10675;47.976;7.824;2023-11-21T06:03:45;2.67;;;0.90;;
21032;SDS011;10675;47.976;7.824;2023-11-21T06:06:10;0.60;;;0.60;;
21032;SDS011;10675;47.976;7.824;2023-11-21T06:08:36;0.67;;;0.63;;
21032;SDS011;10675;47.976;7.824;2023-11-21T06:11:01;0.60;;;0.60;;
21032;SDS011;10675;47.976;7.824;2023-11-21T06:13:27;1.17;;;0.93;;
21032;SDS011;10675;47.976;7.824;2023-11-21T06:15:52;0.73;;;0.73;;
21032;SDS011;10675;47.976;7.824;2023-11-21T06:18:18;0.63;;;0.63;;
21032;SDS011;10675;47.976;7.824;2023-11-21T06:20:47;0.73;;;0.60;;
21032;SDS011;10675;47.976;7.824;2023-11-21T06:23:12;0.70;;;0.70;;
21032;SDS011;10675;47.976;7.824;2023-11-21T06:25:39;0.60;;;0.60;;
21032;SDS011;10675;47.976;7.824;2023-11-21T06:28:05;1.40;;;0.53;;
21032;SDS011;10675;47.976;7.824;2023-11-21T06:30:31;1.10;;;0.80;;
21032;SDS011;10675;47.976;7.824;2023-11-21T06:32:57;1.00;;;0.90;;
21032;SDS011;10675;47.976;7.824;2023-11-21T06:35:22;2.87;;;1.17;;
21032;SDS011;10675;47.976;7.824;2023-11-21T06:37:48;2.10;;;1.20;;
21032;SDS011;10675;47.976;7.824;2023-11-21T06:40:13;1.17;;;1.13;;
21032;SDS011;10675;47.976;7.824;2023-11-21T06:42:43;2.57;;;1.47;;
21032;SDS011;10675;47.976;7.824;2023-11-21T06:45:09;1.63;;;1.40;;
21032;SDS011;10675;47.976;7.824;2023-11-21T06:47:35;1.47;;;1.37;;
21032;SDS011;10675;47.976;7.824;2023-11-21T06:50:02;1.50;;;1.40;;
21032;SDS011;10675;47.976;7.824;2023-11-21T06:52:28;2.70;;;1.50;;
21032;SDS011;10675;47.976;7.824;2023-11-21T06:54:54;2.00;;;1.10;;
21032;SDS011;10675;47.976;7.824;2023-11-21T06:57:19;1.70;;;1.60;;
21032;SDS011;10675;47.976;7.824;2023-11-21T06:59:45;4.90;;;1.80;;
21032;SDS011;10675;47.976;7.824;2023-11-21T07:02:11;1.80;;;1.70;;
21032;SDS011;10675;47.976;7.824;2023-11-21T07:04:36;2.60;;;1.60;;
21032;SDS011;10675;47.976;7.824;2023-11-21T07:07:02;1.93;;;1.60;;
21032;SDS011;10675;47.976;7.824;2023-11-21T07:09:29;3.10;;;1.73;;
21032;SDS011;10675;47.976;7.824;2023-11-21T07:11:55;2.73;;;1.63;;
21032;SDS011;10675;47.976;7.824;2023-11-21T07:14:21;2.13;;;1.43;;
21032;SDS011;10675;47.976;7.824;2023-11-21T07:16:47;1.87;;;1.30;;
21032;SDS011;10675;47.976;7.824;2023-11-21T07:19:13;1.60;;;1.00;;
21032;SDS011;10675;47.976;7.824;2023-11-21T07:21:39;0.83;;;0.83;;
21032;SDS011;10675;47.976;7.824;2023-11-21T07:24:05;1.37;;;1.27;;
21032;SDS011;10675;47.976;7.824;2023-11-21T07:26:32;0.90;;;0.90;;
21032;SDS011;10675;47.976;7.824;2023-11-21T07:28:59;1.73;;;1.00;;
21032;SDS011;10675;47.976;7.824;2023-11-21T07:31:25;3.23;;;1.60;;
21032;SDS011;10675;47.976;7.824;2023-11-21T07:33:50;2.40;;;2.20;;
21032;SDS011;10675;47.976;7.824;2023-11-21T07:36:17;2.87;;;1.90;;
21032;SDS011;10675;47.976;7.824;2023-11-21T07:38:43;3.97;;;1.57;;
21032;SDS011;10675;47.976;7.824;2023-11-21T07:41:10;1.97;;;1.30;;
21032;SDS011;10675;47.976;7.824;2023-11-21T07:43:36;4.90;;;1.40;;
21032;SDS011;10675;47.976;7.824;2023-11-21T07:46:02;2.90;;;1.50;;
21032;SDS011;10675;47.976;7.824;2023-11-21T07:48:29;1.70;;;1.60;;
21032;SDS011;10675;47.976;7.824;2023-11-21T07:50:58;3.80;;;1.70;;
21032;SDS011;10675;47.976;7.824;2023-11-21T07:53:24;1.83;;;1.53;;
21032;SDS011;10675;47.976;7.824;2023-11-21T07:55:56;3.97;;;1.57;;
21032;SDS011;10675;47.976;7.824;2023-11-21T07:58:22;5.43;;;1.57;;
21032;SDS011;10675;47.976;7.824;2023-11-21T08:00:49;1.23;;;1.13;;
21032;SDS011;10675;47.976;7.824;2023-11-21T08:03:15;1.37;;;1.27;;
21032;SDS011;10675;47.976;7.824;2023-11-21T08:05:41;2.93;;;1.20;;
21032;SDS011;10675;47.976;7.824;2023-11-21T08:08:06;1.40;;;1.30;;
21032;SDS011;10675;47.976;7.824;2023-11-21T08:10:32;2.70;;;1.00;;
21032;SDS011;10675;47.976;7.824;2023-11-21T08:12:58;2.20;;;1.13;;
21032;SDS011;10675;47.976;7.824;2023-11-21T08:15:24;3.83;;;2.17;;
21032;SDS011;10675;47.976;7.824;2023-11-21T08:17:50;2.70;;;2.07;;
21032;SDS011;10675;47.976;7.824;2023-11-21T08:20:15;5.20;;;2.47;;
21032;SDS011;10675;47.976;7.824;2023-11-21T08:22:41;3.90;;;2.30;;
21032;SDS011;10675;47.976;7.824;2023-11-21T08:25:07;5.43;;;2.90;;
21032;SDS011;10675;47.976;7.824;2023-11-21T08:27:33;3.37;;;2.40;;
21032;SDS011;10675;47.976;7.824;2023-11-21T08:29:59;3.53;;;2.00;;
21032;SDS011;10675;47.976;7.824;2023-11-21T08:32:28;3.57;;;1.93;;
21032;SDS011;10675;47.976;7.824;2023-11-21T08:34:57;5.30;;;2.20;;
21032;SDS011;10675;47.976;7.824;2023-11-21T08:37:22;5.57;;;2.37;;
21032;SDS011;10675;47.976;7.824;2023-11-21T08:39:48;2.70;;;1.73;;
21032;SDS011;10675;47.976;7.824;2023-11-21T08:42:14;3.03;;;1.43;;
21032;SDS011;10675;47.976;7.824;2023-11-21T08:44:40;2.37;;;1.30;;
21032;SDS011;10675;47.976;7.824;2023-11-21T08:47:06;1.53;;;1.43;;
21032;SDS011;10675;47.976;7.824;2023-11-21T08:49:32;2.07;;;1.40;;
21032;SDS011;10675;47.976;7.824;2023-11-21T08:51:58;1.17;;;1.07;;
21032;SDS011;10675;47.976;7.824;2023-11-21T08:54:24;1.17;;;1.10;;
21032;SDS011;10675;47.976;7.824;2023-11-21T08:56:51;0.70;;;0.70;;
21032;SDS011;10675;47.976;7.824;2023-11-21T08:59:17;0.80;;;0.80;;
21032;SDS011;10675;47.976;7.824;2023-11-21T09:01:42;1.77;;;0.77;;
21032;SDS011;10675;47.976;7.824;2023-11-21T09:04:08;1.33;;;1.07;;
21032;SDS011;10675;47.976;7.824;2023-11-21T09:06:33;0.97;;;0.70;;
21032;SDS011;10675;47.976;7.824;2023-11-21T09:09:00;1.03;;;0.93;;
21032;SDS011;10675;47.976;7.824;2023-11-21T09:11:25;3.77;;;0.90;;
21032;SDS011;10675;47.976;7.824;2023-11-21T09:13:56;1.17;;;1.10;;
21032;SDS011;10675;47.976;7.824;2023-11-21T09:16:22;2.30;;;0.97;;
21032;SDS011;10675;47.976;7.824;2023-11-21T09:18:48;0.60;;;0.60;;
21032;SDS011;10675;47.976;7.824;2023-11-21T09:21:13;0.80;;;0.70;;
21032;SDS011;10675;47.976;7.824;2023-11-21T09:23:39;0.90;;;0.90;;
21032;SDS011;10675;47.976;7.824;2023-11-21T09:26:04;0.80;;;0.80;;
21032;SDS011;10675;47.976;7.824;2023-11-21T09:28:30;1.37;;;0.73;;
21032;SDS011;10675;47.976;7.824;2023-11-21T09:30:56;1.70;;;0.90;;
21032;SDS011;10675;47.976;7.824;2023-11-21T09:33:21;1.00;;;1.00;;
21032;SDS011;10675;47.976;7.824;2023-11-21T09:35:49;1.47;;;0.80;;
21032;SDS011;10675;47.976;7.824;2023-11-21T09:38:16;1.20;;;1.10;;
21032;SDS011;10675;47.976;7.824;2023-11-21T09:40:41;1.47;;;1.00;;
21032;SDS011;10675;47.976;7.824;2023-11-21T09:43:14;0.83;;;0.83;;
21032;SDS011;10675;47.976;7.824;2023-11-21T09:45:43;1.10;;;0.97;;
21032;SDS011;10675;47.976;7.824;2023-11-21T09:48:12;0.90;;;0.90;;
21032;SDS011;10675;47.976;7.824;2023-11-21T09:50:39;1.20;;;1.10;;
21032;SDS011;10675;47.976;7.824;2023-11-21T09:53:20;1.20;;;1.07;;
21032;SDS011;10675;47.976;7.824;2023-11-21T09:55:47;1.87;;;1.00;;
21032;SDS011;10675;47.976;7.824;2023-11-21T09:58:15;0.77;;;0.60;;
21032;SDS011;10675;47.976;7.824;2023-11-21T10:00:41;0.90;;;0.90;;
21032;SDS011;10675;47.976;7.824;2023-11-21T10:03:08;0.60;;;0.60;;
21032;SDS011;10675;47.976;7.824;2023-11-21T10:05:37;2.27;;;0.83;;
21032;SDS011;10675;47.976;7.824;2023-11-21T10:08:07;1.20;;;0.93;;
21032;SDS011;10675;47.976;7.824;2023-11-21T10:10:37;1.67;;;0.70;;
21032;SDS011;10675;47.976;7.824;2023-11-21T10:13:09;0.70;;;0.70;;
21032;SDS011;10675;47.976;7.824;2023-11-21T10:15:37;0.70;;;0.70;;
21032;SDS011;10675;47.976;7.824;2023-11-21T10:18:03;0.70;;;0.70;;
21032;SDS011;10675;47.976;7.824;2023-11-21T10:20:31;3.03;;;0.73;;
21032;SDS011;10675;47.976;7.824;2023-11-21T10:22:58;1.87;;;1.17;;
21032;SDS011;10675;47.976;7.824;2023-11-21T10:25:27;0.70;;;0.70;;
21032;SDS011;10675;47.976;7.824;2023-11-21T10:27:57;0.50;;;0.50;;
21032;SDS011;10675;47.976;7.824;2023-11-21T10:30:36;1.50;;;0.80;;
21032;SDS011;10675;47.976;7.824;2023-11-21T10:33:03;0.50;;;0.50;;
21032;SDS011;10675;47.976;7.824;2023-11-21T10:35:38;0.70;;;0.70;;
21032;SDS011;10675;47.976;7.824;2023-11-21T10:38:05;3.27;;;1.57;;
21032;SDS011;10675;47.976;7.824;2023-11-21T10:40:30;1.80;;;1.70;;
21032;SDS011;10675;47.976;7.824;2023-11-21T10:43:05;1.43;;;1.30;;
21032;SDS011;10675;47.976;7.824;2023-11-21T10:45:31;0.83;;;0.83;;
21032;SDS011;10675;47.976;7.824;2023-11-21T10:47:57;0.97;;;0.70;;
21032;SDS011;10675;47.976;7.824;2023-11-21T10:50:23;0.83;;;0.83;;
21032;SDS011;10675;47.976;7.824;2023-11-21T10:52:50;0.60;;;0.60;;
21032;SDS011;10675;47.976;7.824;2023-11-21T10:55:19;0.70;;;0.70;;
21032;SDS011;10675;47.976;7.824;2023-11-21T10:57:51;0.70;;;0.70;;
21032;SDS011;10675;47.976;7.824;2023-11-21T11:00:18;0.60;;;0.60;;
21032;SDS011;10675;47.976;7.824;2023-11-21T11:02:49;2.17;;;0.80;;
21032;SDS011;10675;47.976;7.824;2023-11-21T11:05:16;1.03;;;0.60;;
21032;SDS011;10675;47.976;7.824;2023-11-21T11:07:45;0.80;;;0.73;;
21032;SDS011;10675;47.976;7.824;2023-11-21T11:10:17;0.70;;;0.70;;
21032;SDS011;10675;47.976;7.824;2023-11-21T11:12:46;0.87;;;0.77;;
21032;SDS011;10675;47.976;7.824;2023-11-21T11:15:12;3.47;;;1.23;;
21032;SDS011;10675;47.976;7.824;2023-11-21T11:17:39;1.20;;;1.10;;
21032;SDS011;10675;47.976;7.824;2023-11-21T11:20:05;0.80;;;0.80;;
21032;SDS011;10675;47.976;7.824;2023-11-21T11:22:47;2.00;;;1.10;;
21032;SDS011;10675;47.976;7.824;2023-11-21T11:25:35;1.33;;;1.20;;
21032;SDS011;10675;47.976;7.824;2023-11-21T11:33:53;0.97;;;0.97;;
21032;SDS011;10675;47.976;7.824;2023-11-21T11:38:50;1.30;;;1.20;;
21032;SDS011;10675;47.976;7.824;2023-11-21T11:41:24;1.33;;;1.00;;
21032;SDS011;10675;47.976;7.824;2023-11-21T11:43:51;1.47;;;1.37;;
21032;SDS011;10675;47.976;7.824;2023-11-21T11:46:18;1.30;;;1.20;;
21032;SDS011;10675;47.976;7.824;2023-11-21T11:48:46;1.70;;;1.30;;
21032;SDS011;10675;47.976;7.824;2023-11-21T11:51:13;1.40;;;1.30;;
21032;SDS011;10675;47.976;7.824;2023-11-21T11:53:42;1.13;;;1.10;;
21032;SDS011;10675;47.976;7.824;2023-11-21T11:58:51;1.93;;;1.57;;
21032;SDS011;10675;47.976;7.824;2023-11-21T12:01:21;2.73;;;1.73;;
21032;SDS011;10675;47.976;7.824;2023-11-21T12:04:22;2.07;;;1.77;;
21032;SDS011;10675;47.976;7.824;2023-11-21T12:06:36;2.97;;;1.60;;
21032;SDS011;10675;47.976;7.824;2023-11-21T12:09:02;3.70;;;1.60;;
21032;SDS011;10675;47.976;7.824;2023-11-21T12:11:33;1.20;;;1.10;;
21032;SDS011;10675;47.976;7.824;2023-11-21T12:14:00;3.13;;;1.10;;
21032;SDS011;10675;47.976;7.824;2023-11-21T12:16:28;1.23;;;1.13;;
21032;SDS011;10675;47.976;7.824;2023-11-21T12:18:53;1.40;;;1.30;;
21032;SDS011;10675;47.976;7.824;2023-11-21T12:21:22;1.63;;;1.20;;
21032;SDS011;10675;47.976;7.824;2023-11-21T12:23:48;2.67;;;1.30;;
21032;SDS011;10675;47.976;7.824;2023-11-21T12:26:14;2.83;;;1.00;;
21032;SDS011;10675;47.976;7.824;2023-11-21T12:28:39;2.03;;;1.10;;
21032;SDS011;10675;47.976;7.824;2023-11-21T12:31:05;1.50;;;1.13;;
21032;SDS011;10675;47.976;7.824;2023-11-21T12:33:32;1.80;;;1.30;;
21032;SDS011;10675;47.976;7.824;2023-11-21T12:35:58;1.07;;;1.07;;
21032;SDS011;10675;47.976;7.824;2023-11-21T12:38:23;1.83;;;1.23;;
21032;SDS011;10675;47.976;7.824;2023-11-21T12:40:49;1.30;;;1.20;;
21032;SDS011;10675;47.976;7.824;2023-11-21T12:43:15;2.17;;;1.30;;
21032;SDS011;10675;47.976;7.824;2023-11-21T12:45:43;1.70;;;1.50;;
21032;SDS011;10675;47.976;7.824;2023-11-21T12:48:09;1.37;;;1.27;;
21032;SDS011;10675;47.976;7.824;2023-11-21T12:50:36;1.70;;;1.60;;
21032;SDS011;10675;47.976;7.824;2023-11-21T12:53:04;3.93;;;1.60;;
21032;SDS011;10675;47.976;7.824;2023-11-21T12:55:33;2.47;;;1.40;;
21032;SDS011;10675;47.976;7.824;2023-11-21T12:58:03;1.80;;;1.60;;
21032;SDS011;10675;47.976;7.824;2023-11-21T13:00:43;2.70;;;1.90;;
21032;SDS011;10675;47.976;7.824;2023-11-21T13:03:11;2.00;;;1.90;;
21032;SDS011;10675;47.976;7.824;2023-11-21T13:05:41;4.83;;;1.90;;
21032;SDS011;10675;47.976;7.824;2023-11-21T13:08:10;1.70;;;1.60;;
21032;SDS011;10675;47.976;7.824;2023-11-21T13:10:38;1.70;;;1.60;;
21032;SDS011;10675;47.976;7.824;2023-11-21T13:13:07;1.80;;;1.50;;
21032;SDS011;10675;47.976;7.824;2023-11-21T13:15:34;2.37;;;1.70;;
21032;SDS011;10675;47.976;7.824;2023-11-21T13:18:03;2.03;;;1.47;;
21032;SDS011;10675;47.976;7.824;2023-11-21T13:20:29;2.40;;;1.57;;
21032;SDS011;10675;47.976;7.824;2023-11-21T13:22:55;1.70;;;1.57;;
21032;SDS011;10675;47.976;7.824;2023-11-21T13:25:28;2.37;;;1.70;;
21032;SDS011;10675;47.976;7.824;2023-11-21T13:27:54;2.27;;;1.40;;
21032;SDS011;10675;47.976;7.824;2023-11-21T13:30:20;1.60;;;1.50;;
21032;SDS011;10675;47.976;7.824;2023-11-21T13:32:58;4.00;;;1.60;;
21032;SDS011;10675;47.976;7.824;2023-11-21T13:35:30;1.77;;;1.50;;
21032;SDS011;10675;47.976;7.824;2023-11-21T13:38:14;1.47;;;1.37;;
21032;SDS011;10675;47.976;7.824;2023-11-21T13:40:42;1.63;;;1.40;;
21032;SDS011;10675;47.976;7.824;2023-11-21T13:43:14;1.50;;;1.40;;
21032;SDS011;10675;47.976;7.824;2023-11-21T13:45:47;2.00;;;1.50;;
21032;SDS011;10675;47.976;7.824;2023-11-21T13:48:17;1.33;;;1.23;;
21032;SDS011;10675;47.976;7.824;2023-11-21T13:50:50;1.80;;;1.20;;
21032;SDS011;10675;47.976;7.824;2023-11-21T13:53:34;2.67;;;1.30;;
21032;SDS011;10675;47.976;7.824;2023-11-21T13:56:02;1.07;;;1.07;;
21032;SDS011;10675;47.976;7.824;2023-11-21T13:58:28;2.30;;;1.40;;
21032;SDS011;10675;47.976;7.824;2023-11-21T14:01:21;1.50;;;1.40;;
21032;SDS011;10675;47.976;7.824;2023-11-21T14:03:53;1.53;;;1.40;;
21032;SDS011;10675;47.976;7.824;2023-11-21T14:06:26;1.40;;;1.20;;
21032;SDS011;10675;47.976;7.824;2023-11-21T14:08:59;1.70;;;1.40;;
21032;SDS011;10675;47.976;7.824;2023-11-21T14:11:30;1.37;;;1.27;;
21032;SDS011;10675;47.976;7.824;2023-11-21T14:13:56;2.83;;;1.63;;
21032;SDS011;10675;47.976;7.824;2023-11-21T14:16:24;1.60;;;1.50;;
21032;SDS011;10675;47.976;7.824;2023-11-21T14:18:49;1.63;;;1.47;;
21032;SDS011;10675;47.976;7.824;2023-11-21T14:21:26;2.00;;;1.40;;
21032;SDS011;10675;47.976;7.824;2023-11-21T14:23:52;3.40;;;1.93;;
21032;SDS011;10675;47.976;7.824;2023-11-21T14:26:19;2.87;;;1.80;;
21032;SDS011;10675;47.976;7.824;2023-11-21T14:28:45;1.80;;;1.70;;
21032;SDS011;10675;47.976;7.824;2023-11-21T14:31:13;2.40;;;1.83;;
21032;SDS011;10675;47.976;7.824;2023-11-21T14:33:41;1.93;;;1.73;;
21032;SDS011;10675;47.976;7.824;2023-11-21T14:36:08;1.67;;;1.57;;
21032;SDS011;10675;47.976;7.824;2023-11-21T14:38:35;2.57;;;1.87;;
21032;SDS011;10675;47.976;7.824;2023-11-21T14:41:02;1.70;;;1.60;;
21032;SDS011;10675;47.976;7.824;2023-11-21T14:43:28;1.40;;;1.30;;
21032;SDS011;10675;47.976;7.824;2023-11-21T14:45:59;1.57;;;1.47;;
21032;SDS011;10675;47.976;7.824;2023-11-21T14:48:24;1.70;;;1.50;;
21032;SDS011;10675;47.976;7.824;2023-11-21T14:51:10;1.60;;;1.50;;
21032;SDS011;10675;47.976;7.824;2023-11-21T14:53:52;2.97;;;1.57;;
21032;SDS011;10675;47.976;7.824;2023-11-21T14:56:22;3.33;;;1.70;;
21032;SDS011;10675;47.976;7.824;2023-11-21T14:58:52;1.80;;;1.57;;
21032;SDS011;10675;47.976;7.824;2023-11-21T15:01:19;1.70;;;1.60;;